Time;durP1;ratioP1;P1;durP2;ratioP2;P2;SDS_P1;SDS_P2;PMS_P1;PMS_P2;Temp;Humidity;BMP_temperature;BMP_pressure;BME280_temperature;BME280_humidity;BME280_pressure;Samples;Min_cycle;Max_cycle;Signal;HPM_P1;HPM_P2
2023/06/11 00:00:25;;;;;;;8.77;7.43;;;16.50;99.90;;;;;;5064232;28;20185;-81
2023/06/11 00:02:54;;;;;;;7.23;6.37;;;16.50;99.90;;;;;;5064926;28;20174;-81
2023/06/11 00:05:24;;;;;;;7.93;6.80;;;16.50;99.90;;;;;;5046535;28;20312;-78
2023/06/11 00:07:51;;;;;;;7.97;7.17;;;16.50;99.90;;;;;;5065111;28;20205;-81
2023/06/11 00:10:17;;;;;;;7.33;6.70;;;16.60;99.90;;;;;;5045751;28;20174;-79
2023/06/11 00:12:43;;;;;;;7.33;6.63;;;16.60;99.90;;;;;;5046964;28;20228;-80
2023/06/11 00:15:09;;;;;;;7.53;6.83;;;16.80;99.90;;;;;;5048000;28;20178;-81
2023/06/11 00:17:35;;;;;;;7.13;6.53;;;16.80;99.90;;;;;;5065408;28;20169;-80
2023/06/11 00:20:09;;;;;;;7.60;6.87;;;16.80;99.90;;;;;;5064274;28;20758;-80
2023/06/11 00:22:35;;;;;;;7.83;7.10;;;16.60;99.90;;;;;;5066280;28;20180;-81
2023/06/11 00:25:01;;;;;;;7.87;7.10;;;16.70;99.90;;;;;;5047417;28;20228;-80
2023/06/11 00:27:26;;;;;;;7.40;6.70;;;16.80;99.90;;;;;;5047507;28;20174;-82
2023/06/11 00:29:53;;;;;;;7.30;6.60;;;16.80;99.90;;;;;;5047860;28;20201;-82
2023/06/11 00:32:19;;;;;;;7.70;6.60;;;16.80;99.90;;;;;;5066282;28;20166;-79
2023/06/11 00:34:45;;;;;;;7.03;6.43;;;16.80;99.90;;;;;;5048284;28;20198;-82
2023/06/11 00:37:11;;;;;;;7.53;6.60;;;16.80;99.90;;;;;;5047738;28;20166;-83
2023/06/11 00:39:37;;;;;;;7.57;6.73;;;16.70;99.90;;;;;;5047971;28;20205;-81
2023/06/11 00:42:03;;;;;;;8.00;6.20;;;16.80;99.90;;;;;;5048440;28;20170;-81
2023/06/11 00:44:29;;;;;;;7.43;6.73;;;16.80;99.90;;;;;;5048502;28;20205;-80
2023/06/11 00:46:57;;;;;;;7.23;6.57;;;16.90;99.90;;;;;;5048195;28;20176;-83
2023/06/11 00:49:23;;;;;;;9.37;6.73;;;16.80;99.90;;;;;;5046208;28;20202;-83
2023/06/11 00:51:49;;;;;;;6.97;6.27;;;16.80;99.90;;;;;;5042703;28;20182;-81
2023/06/11 00:54:16;;;;;;;7.80;6.77;;;16.80;99.90;;;;;;5043191;28;20774;-82
2023/06/11 00:56:46;;;;;;;8.27;7.43;;;16.90;99.90;;;;;;5043446;28;20166;-80
2023/06/11 00:59:17;;;;;;;7.63;6.83;;;16.90;99.90;;;;;;5043424;28;20525;-82
2023/06/11 01:01:59;;;;;;;7.70;7.00;;;16.80;99.90;;;;;;5043344;28;20178;-80
2023/06/11 01:04:29;;;;;;;11.50;7.27;;;16.80;99.90;;;;;;5043423;28;20197;-80
2023/06/11 01:06:59;;;;;;;9.37;7.13;;;16.70;99.90;;;;;;5062504;28;20184;-80
2023/06/11 01:09:26;;;;;;;6.97;6.27;;;16.70;99.90;;;;;;5043392;28;20205;-80
2023/06/11 01:11:55;;;;;;;8.53;7.00;;;16.60;99.90;;;;;;5061221;28;20177;-81
2023/06/11 01:14:21;;;;;;;7.70;6.43;;;16.50;99.90;;;;;;5044017;28;20201;-80
2023/06/11 01:17:02;;;;;;;7.07;6.23;;;16.50;99.90;;;;;;5043996;28;20177;-80
2023/06/11 01:19:55;;;;;;;7.50;6.13;;;16.50;99.90;;;;;;5061458;28;20173;-83
2023/06/11 01:22:51;;;;;;;6.70;5.97;;;16.50;99.90;;;;;;5061260;28;20203;-80
2023/06/11 01:25:25;;;;;;;7.57;6.80;;;16.40;99.90;;;;;;5061495;28;20166;-80
2023/06/11 01:28:03;;;;;;;7.90;7.10;;;16.20;99.90;;;;;;5061195;28;20189;-81
2023/06/11 01:30:35;;;;;;;8.20;7.00;;;16.10;99.90;;;;;;5061368;28;20676;-82
2023/06/11 01:33:02;;;;;;;11.37;7.33;;;16.10;99.90;;;;;;5042787;28;20204;-80
2023/06/11 01:35:28;;;;;;;8.47;7.37;;;16.10;99.90;;;;;;5061295;28;20165;-80
2023/06/11 01:37:57;;;;;;;10.47;7.30;;;16.20;99.90;;;;;;5061930;28;20200;-80
2023/06/11 01:40:27;;;;;;;8.10;7.20;;;16.00;99.90;;;;;;5042631;28;20253;-81
2023/06/11 01:42:54;;;;;;;7.53;6.80;;;16.10;99.90;;;;;;5060568;28;20216;-80
2023/06/11 01:45:21;;;;;;;8.23;6.77;;;16.20;99.90;;;;;;5060946;28;20552;-79
2023/06/11 01:47:50;;;;;;;8.27;6.77;;;16.30;99.90;;;;;;5060955;28;20204;-83
2023/06/11 01:50:17;;;;;;;7.27;6.57;;;16.30;99.90;;;;;;5042646;28;20177;-81
2023/06/11 01:52:44;;;;;;;8.30;7.40;;;16.30;99.90;;;;;;5060434;28;20170;-83
2023/06/11 01:55:10;;;;;;;8.53;7.57;;;16.20;99.90;;;;;;5060567;28;20195;-80
2023/06/11 01:57:36;;;;;;;8.27;7.17;;;16.20;99.90;;;;;;5043091;28;20173;-79
2023/06/11 02:00:10;;;;;;;9.10;7.33;;;16.20;99.90;;;;;;5042065;28;20201;-81
2023/06/11 02:02:38;;;;;;;9.53;7.37;;;16.10;99.90;;;;;;5042990;28;20176;-80
2023/06/11 02:05:04;;;;;;;8.80;7.03;;;16.10;99.90;;;;;;5060282;28;20170;-80
2023/06/11 02:07:29;;;;;;;8.13;7.33;;;15.90;99.90;;;;;;5042901;28;20248;-79
2023/06/11 02:09:55;;;;;;;8.63;7.77;;;16.00;99.90;;;;;;5042470;28;20182;-78
2023/06/11 02:12:20;;;;;;;7.97;6.87;;;15.90;99.90;;;;;;5042063;28;20224;-80
2023/06/11 02:14:46;;;;;;;7.30;6.60;;;15.80;99.90;;;;;;5042866;28;20277;-83
2023/06/11 02:17:12;;;;;;;7.63;6.93;;;15.70;99.90;;;;;;5043058;28;20165;-79
2023/06/11 02:19:38;;;;;;;7.90;7.10;;;15.60;99.90;;;;;;5042226;28;20231;-78
2023/06/11 02:22:04;;;;;;;7.63;6.83;;;15.60;99.90;;;;;;5060738;28;20180;-80
2023/06/11 02:24:29;;;;;;;7.60;6.90;;;15.60;99.90;;;;;;5060264;28;20233;-80
2023/06/11 02:26:55;;;;;;;9.30;7.53;;;15.60;99.90;;;;;;5041912;28;20253;-80
2023/06/11 02:29:20;;;;;;;8.10;7.30;;;15.70;99.90;;;;;;5059872;28;20255;-80
2023/06/11 02:31:46;;;;;;;8.40;6.97;;;15.70;99.90;;;;;;5042614;28;20173;-80
2023/06/11 02:34:12;;;;;;;8.00;7.20;;;15.60;99.90;;;;;;5043335;28;20193;-80
2023/06/11 02:36:37;;;;;;;9.40;7.53;;;15.70;99.90;;;;;;5046968;28;20597;-80
2023/06/11 02:39:03;;;;;;;7.27;6.57;;;15.80;99.90;;;;;;5046989;28;20197;-80
2023/06/11 02:41:29;;;;;;;7.37;6.27;;;15.70;99.90;;;;;;5064750;28;20181;-83
2023/06/11 02:43:55;;;;;;;6.57;5.83;;;15.60;99.90;;;;;;5065301;28;20206;-80
2023/06/11 02:46:21;;;;;;;7.37;6.60;;;15.50;99.90;;;;;;5046819;28;20185;-78
2023/06/11 02:48:47;;;;;;;7.30;6.33;;;15.60;99.90;;;;;;5046467;28;20209;-77
2023/06/11 02:51:13;;;;;;;7.10;6.47;;;15.50;99.90;;;;;;5045988;28;20264;-78
2023/06/11 02:53:38;;;;;;;6.80;6.20;;;15.60;99.90;;;;;;5046296;28;20248;-82
2023/06/11 02:56:04;;;;;;;7.33;6.60;;;15.60;99.90;;;;;;5047140;28;20207;-84
2023/06/11 02:58:29;;;;;;;7.43;6.73;;;15.60;99.90;;;;;;5077401;28;20196;-80
2023/06/11 03:00:55;;;;;;;7.70;6.90;;;15.50;99.90;;;;;;5042336;28;20276;-79
2023/06/11 03:03:21;;;;;;;6.43;5.83;;;15.60;99.90;;;;;;5065069;28;20195;-81
2023/06/11 03:05:46;;;;;;;5.57;5.17;;;15.50;98.90;;;;;;5046994;28;20169;-83
2023/06/11 03:08:12;;;;;;;6.20;5.70;;;15.30;77.30;;;;;;5046652;28;20227;-83
2023/06/11 03:10:38;;;;;;;7.43;6.30;;;15.30;99.90;;;;;;5065143;28;20173;-80
2023/06/11 03:13:04;;;;;;;7.10;6.40;;;15.30;99.90;;;;;;5047343;28;20197;-81
2023/06/11 03:15:30;;;;;;;7.50;6.80;;;15.20;99.90;;;;;;5065461;28;20233;-80
2023/06/11 03:17:56;;;;;;;6.83;6.20;;;15.20;99.90;;;;;;5065592;28;20184;-81
2023/06/11 03:20:22;;;;;;;6.53;5.87;;;15.20;99.90;;;;;;5064186;28;20201;-78
2023/06/11 03:22:47;;;;;;;6.67;6.07;;;15.10;99.90;;;;;;5046410;28;20204;-80
2023/06/11 03:25:13;;;;;;;7.07;6.40;;;15.00;99.90;;;;;;5045661;28;20177;-82
2023/06/11 03:27:39;;;;;;;7.00;6.30;;;15.00;99.90;;;;;;5064472;28;20178;-78
2023/06/11 03:30:06;;;;;;;6.30;5.70;;;15.10;99.90;;;;;;5046744;28;20655;-81
2023/06/11 03:32:31;;;;;;;5.90;5.40;;;15.00;99.90;;;;;;5045576;28;20170;-83
2023/06/11 03:34:57;;;;;;;5.60;5.20;;;14.80;99.90;;;;;;5045645;28;20192;-80
2023/06/11 03:37:22;;;;;;;7.10;5.77;;;14.80;99.90;;;;;;5046076;28;20177;-81
2023/06/11 03:39:48;;;;;;;7.20;6.10;;;14.80;99.90;;;;;;5064179;28;20244;-80
2023/06/11 03:42:14;;;;;;;7.60;6.57;;;14.90;99.90;;;;;;5063888;28;20189;-81
2023/06/11 03:44:39;;;;;;;9.17;6.57;;;14.90;99.90;;;;;;5045613;28;20186;-81
2023/06/11 03:47:05;;;;;;;9.60;6.43;;;14.70;99.90;;;;;;5064045;28;20173;-80
2023/06/11 03:49:31;;;;;;;6.83;6.17;;;14.60;99.90;;;;;;5045455;28;20205;-81
2023/06/11 03:51:56;;;;;;;7.10;6.00;;;14.60;99.90;;;;;;5045771;28;20180;-78
2023/06/11 03:54:22;;;;;;;6.93;6.33;;;14.60;99.90;;;;;;5063720;28;20216;-80
2023/06/11 03:56:48;;;;;;;7.97;6.70;;;14.60;99.90;;;;;;5064857;28;20178;-81
2023/06/11 03:59:13;;;;;;;7.57;6.77;;;14.60;99.90;;;;;;5045915;28;20182;-80
2023/06/11 04:01:40;;;;;;;9.07;8.27;;;14.60;99.90;;;;;;5046342;28;20184;-83
2023/06/11 04:04:05;;;;;;;10.97;8.13;;;14.50;99.90;;;;;;5062119;28;20201;-78
2023/06/11 04:06:38;;;;;;;8.83;7.93;;;14.40;99.90;;;;;;5065958;28;20264;-82
2023/06/11 04:09:04;;;;;;;9.67;7.77;;;14.60;99.90;;;;;;5065784;28;20680;-78
2023/06/11 04:11:30;;;;;;;8.90;8.00;;;14.60;99.90;;;;;;5066708;28;20178;-80
2023/06/11 04:13:56;;;;;;;9.43;8.30;;;14.60;99.90;;;;;;5049167;28;20220;-81
2023/06/11 04:16:21;;;;;;;8.50;7.70;;;14.70;99.90;;;;;;5067202;28;20181;-80
2023/06/11 04:18:47;;;;;;;7.00;5.17;;;14.80;99.90;;;;;;5049287;28;20227;-77
2023/06/11 04:21:14;;;;;;;7.70;6.93;;;14.80;99.90;;;;;;5067051;28;20570;-79
2023/06/11 04:23:40;;;;;;;8.33;7.63;;;14.60;99.90;;;;;;5049314;28;20239;-83
2023/06/11 04:26:07;;;;;;;8.63;7.73;;;14.60;99.90;;;;;;5068395;28;20174;-81
2023/06/11 04:28:35;;;;;;;9.00;8.20;;;14.60;99.90;;;;;;5049530;28;20212;-80
2023/06/11 04:31:01;;;;;;;10.70;8.30;;;14.60;99.90;;;;;;5060241;28;20181;-82
2023/06/11 04:33:33;;;;;;;9.30;8.10;;;14.70;99.90;;;;;;5060821;28;20657;-81
2023/06/11 04:36:08;;;;;;;10.27;8.50;;;14.80;99.90;;;;;;5041978;28;20185;-81
2023/06/11 04:38:36;;;;;;;9.73;8.60;;;14.80;99.90;;;;;;5042609;28;20169;-84
2023/06/11 04:41:02;;;;;;;10.00;8.17;;;14.90;99.90;;;;;;5041567;28;20560;-82
2023/06/11 04:43:33;;;;;;;8.93;8.03;;;14.90;99.90;;;;;;5057810;28;20242;-84
2023/06/11 04:46:00;;;;;;;9.33;8.43;;;14.90;99.90;;;;;;5058270;28;20199;-82
2023/06/11 04:48:31;;;;;;;13.27;8.37;;;15.00;99.90;;;;;;5042622;28;20577;-81
2023/06/11 04:50:59;;;;;;;10.10;8.63;;;15.00;99.90;;;;;;5041622;28;20170;-80
2023/06/11 04:53:27;;;;;;;9.10;8.30;;;15.10;99.90;;;;;;5060002;28;20263;-82
2023/06/11 04:55:57;;;;;;;10.03;8.80;;;15.10;99.90;;;;;;5042098;28;20170;-82
2023/06/11 04:58:24;;;;;;;10.73;6.63;;;15.20;99.90;;;;;;5056125;28;20737;-82
2023/06/11 05:00:52;;;;;;;7.50;5.63;;;16.40;99.90;;;;;;5055611;28;20181;-83
2023/06/11 05:03:19;;;;;;;7.40;6.70;;;17.70;99.90;;;;;;5037879;28;20198;-82
2023/06/11 05:05:51;;;;;;;6.47;5.70;;;18.30;99.90;;;;;;5056851;28;20174;-82
2023/06/11 05:08:28;;;;;;;5.43;5.03;;;18.90;1.00;;;;;;5057526;28;20197;-82
2023/06/11 05:10:57;;;;;;;5.33;4.83;;;19.30;99.90;;;;;;5056687;28;20651;-83
2023/06/11 05:13:26;;;;;;;5.77;4.63;;;19.60;99.90;;;;;;5037985;28;20221;-81
2023/06/11 05:15:56;;;;;;;6.23;5.30;;;19.70;99.90;;;;;;5058403;28;20203;-85
2023/06/11 05:18:23;;;;;;;4.93;4.53;;;19.60;1.00;;;;;;5040351;28;20170;-83
2023/06/11 05:20:49;;;;;;;5.47;4.90;;;20.00;1.00;;;;;;5039603;28;20197;-81
2023/06/11 05:23:21;;;;;;;6.53;5.93;;;19.70;86.40;;;;;;5056764;28;20219;-83
2023/06/11 05:25:47;;;;;;;6.47;5.87;;;19.40;1.00;;;;;;5056236;28;20161;-81
2023/06/11 05:28:14;;;;;;;6.10;5.60;;;19.50;99.90;;;;;;5038692;28;20208;-81
2023/06/11 05:30:45;;;;;;;6.60;5.93;;;19.40;99.90;;;;;;5038851;28;20177;-81
2023/06/11 05:33:13;;;;;;;6.77;6.10;;;19.60;1.00;;;;;;5041163;28;20193;-82
2023/06/11 05:35:39;;;;;;;6.67;5.27;;;19.50;57.90;;;;;;5060017;28;20180;-81
2023/06/11 05:38:07;;;;;;;7.73;7.00;;;19.60;1.00;;;;;;5044667;28;20169;-79
2023/06/11 05:40:34;;;;;;;8.17;7.37;;;19.20;99.90;;;;;;5061196;28;20169;-81
2023/06/11 05:43:00;;;;;;;7.10;6.50;;;18.90;1.00;;;;;;5043810;28;20284;-81
2023/06/11 05:45:26;;;;;;;8.03;7.13;;;18.50;99.90;;;;;;5041986;28;20228;-82
2023/06/11 05:47:51;;;;;;;8.10;7.40;;;18.10;1.00;;;;;;5040250;28;20208;-84
2023/06/11 05:50:17;;;;;;;7.97;7.23;;;17.80;99.90;;;;;;5040722;28;20594;-82
2023/06/11 05:52:44;;;;;;;7.93;7.13;;;17.70;99.90;;;;;;5059691;28;20547;-81
2023/06/11 05:55:09;;;;;;;8.03;7.10;;;17.50;99.90;;;;;;5067497;22;20228;-89
2023/06/11 05:57:36;;;;;;;8.00;7.30;;;17.50;99.90;;;;;;5074029;28;20169;-83
2023/06/11 06:00:01;;;;;;;9.07;8.17;;;17.70;99.90;;;;;;5054738;28;20255;-82
2023/06/11 06:02:27;;;;;;;8.10;7.40;;;17.60;99.90;;;;;;5073185;28;20195;-83
2023/06/11 06:04:52;;;;;;;8.40;7.70;;;17.70;99.90;;;;;;5073135;28;20678;-83
2023/06/11 06:07:18;;;;;;;8.80;8.00;;;17.80;99.90;;;;;;5073792;28;20635;-81
2023/06/11 06:09:44;;;;;;;8.60;7.80;;;17.80;99.90;;;;;;5072413;28;20200;-85
2023/06/11 06:12:10;;;;;;;8.57;7.70;;;17.80;99.90;;;;;;5054654;28;20172;-86
2023/06/11 06:14:36;;;;;;;8.47;7.67;;;17.80;99.90;;;;;;5054327;28;20195;-86
2023/06/11 06:17:02;;;;;;;8.77;7.87;;;17.90;99.90;;;;;;5072487;28;20171;-86
2023/06/11 06:19:27;;;;;;;8.10;7.30;;;18.00;99.90;;;;;;5072598;28;20177;-84
2023/06/11 06:21:53;;;;;;;7.83;7.13;;;18.00;99.90;;;;;;5054629;28;20180;-85
2023/06/11 06:24:19;;;;;;;7.83;7.13;;;18.10;99.90;;;;;;5072502;28;20204;-86
2023/06/11 06:26:44;;;;;;;8.33;7.60;;;18.20;99.90;;;;;;5054335;28;20177;-86
2023/06/11 06:29:12;;;;;;;7.93;7.20;;;18.40;99.90;;;;;;5072456;28;20203;-82
2023/06/11 06:31:38;;;;;;;7.83;7.03;;;18.60;99.90;;;;;;5054873;28;20173;-85
2023/06/11 06:34:04;;;;;;;8.03;7.30;;;18.70;99.90;;;;;;5054225;28;20203;-84
2023/06/11 06:36:30;;;;;;;8.43;7.63;;;18.80;99.90;;;;;;5054654;28;20181;-84
2023/06/11 06:38:56;;;;;;;6.93;6.33;;;18.90;99.90;;;;;;5072103;28;20180;-83
2023/06/11 06:41:21;;;;;;;8.17;6.60;;;19.10;1.00;;;;;;5072135;28;20169;-83
2023/06/11 06:43:47;;;;;;;7.10;6.40;;;19.20;1.00;;;;;;5072197;28;20199;-83
2023/06/11 06:46:12;;;;;;;7.03;6.10;;;19.50;1.00;;;;;;5054584;28;20207;-83
2023/06/11 06:48:38;;;;;;;8.07;5.83;;;19.80;1.00;;;;;;5072207;28;20208;-83
2023/06/11 06:51:04;;;;;;;6.13;5.60;;;19.90;1.00;;;;;;5072069;28;20169;-83
2023/06/11 06:53:29;;;;;;;7.23;6.03;;;20.10;99.90;;;;;;5072076;28;20219;-83
2023/06/11 06:55:55;;;;;;;6.60;6.00;;;20.30;1.00;;;;;;5071965;28;20533;-83
2023/06/11 06:58:21;;;;;;;6.70;5.63;;;20.50;99.90;;;;;;5054355;28;20176;-83
2023/06/11 07:00:46;;;;;;;7.97;6.18;;;20.50;1.00;;;;;;5053837;28;20173;-83
2023/06/11 07:03:13;;;;;;;6.07;5.50;;;20.60;99.90;;;;;;5054310;28;20238;-83
2023/06/11 07:05:40;;;;;;;6.85;5.90;;;20.80;1.00;;;;;;5072147;28;20610;-83
2023/06/11 07:08:08;;;;;;;5.85;5.35;;;20.80;99.90;;;;;;5053983;28;20610;-83
2023/06/11 07:10:34;;;;;;;6.53;5.93;;;20.90;99.90;;;;;;5053957;28;20181;-83
2023/06/11 07:13:00;;;;;;;7.05;5.57;;;21.00;1.00;;;;;;5072122;28;20173;-83
2023/06/11 07:15:25;;;;;;;6.00;5.40;;;21.10;99.90;;;;;;5053935;28;20185;-83
2023/06/11 07:17:51;;;;;;;5.68;5.13;;;21.30;99.90;;;;;;5054111;28;20176;-81
2023/06/11 07:20:16;;;;;;;5.50;5.00;;;21.40;1.00;;;;;;5055993;28;20180;-80
2023/06/11 07:22:42;;;;;;;5.97;5.40;;;21.50;99.90;;;;;;5076274;28;20173;-81
2023/06/11 07:25:08;;;;;;;5.55;5.05;;;21.70;1.00;;;;;;5057454;28;20188;-80
2023/06/11 07:27:34;;;;;;;5.55;5.05;;;21.70;99.90;;;;;;5056996;28;20652;-81
2023/06/11 07:30:00;;;;;;;5.70;5.00;;;21.80;1.00;;;;;;5075751;28;20176;-81
2023/06/11 07:32:25;;;;;;;5.53;5.03;;;21.90;99.90;;;;;;5057542;28;20169;-81
2023/06/11 07:34:51;;;;;;;5.22;4.72;;;22.10;1.00;;;;;;5058032;28;20213;-80
2023/06/11 07:37:16;;;;;;;5.47;4.65;;;22.20;1.00;;;;;;5078126;28;20165;-80
2023/06/11 07:39:42;;;;;;;5.30;4.80;;;22.20;99.90;;;;;;5077869;28;20180;-80
2023/06/11 07:42:08;;;;;;;5.15;4.40;;;22.30;99.90;;;;;;5059734;28;20227;-79
2023/06/11 07:44:34;;;;;;;5.50;4.38;;;22.50;1.00;;;;;;5077701;28;20196;-80
2023/06/11 07:46:59;;;;;;;6.82;4.53;;;22.60;1.00;;;;;;5058165;28;20184;-82
2023/06/11 07:49:25;;;;;;;4.88;4.10;;;22.70;99.90;;;;;;5076784;28;20209;-81
2023/06/11 07:51:51;;;;;;;4.88;4.45;;;22.70;99.90;;;;;;5058138;28;20200;-82
2023/06/11 07:54:17;;;;;;;5.20;4.30;;;22.90;34.00;;;;;;5075186;28;20265;-80
2023/06/11 07:56:46;;;;;;;4.78;4.10;;;23.00;1.00;;;;;;5076057;28;20246;-81
2023/06/11 07:59:12;;;;;;;5.07;3.92;;;23.20;1.00;;;;;;5058060;28;20172;-80
2023/06/11 08:01:38;;;;;;;6.40;4.22;;;23.30;1.00;;;;;;5076025;28;20180;-81
2023/06/11 08:04:03;;;;;;;5.93;4.10;;;23.40;1.00;;;;;;5075931;28;20236;-81
2023/06/11 08:06:29;;;;;;;5.20;4.28;;;23.50;1.00;;;;;;5075933;28;20597;-81
2023/06/11 08:08:56;;;;;;;7.38;4.88;;;23.50;1.00;;;;;;5056898;28;20232;-79
2023/06/11 08:11:21;;;;;;;19.98;8.05;;;23.60;1.00;;;;;;5075942;28;20193;-80
2023/06/11 08:13:47;;;;;;;8.73;5.15;;;23.70;1.00;;;;;;5074616;28;20228;-79
2023/06/11 08:16:13;;;;;;;5.05;4.00;;;23.80;1.00;;;;;;5055992;28;20165;-79
2023/06/11 08:18:38;;;;;;;4.25;3.85;;;23.90;1.00;;;;;;5057084;28;20180;-80
2023/06/11 08:21:05;;;;;;;5.07;3.90;;;24.00;1.00;;;;;;5057025;28;20348;-78
2023/06/11 08:23:30;;;;;;;7.22;4.18;;;24.10;99.90;;;;;;5057316;28;20198;-80
2023/06/11 08:25:58;;;;;;;5.55;3.70;;;24.20;99.90;;;;;;5055398;28;20267;-79
2023/06/11 08:28:25;;;;;;;6.22;4.30;;;24.10;99.90;;;;;;5056965;28;20250;-79
2023/06/11 08:30:50;;;;;;;5.25;4.30;;;24.20;99.90;;;;;;5056547;28;20184;-80
2023/06/11 08:33:17;;;;;;;6.53;4.25;;;24.20;99.90;;;;;;5056025;28;20593;-79
2023/06/11 08:35:43;;;;;;;4.63;3.70;;;24.30;99.90;;;;;;5057118;28;20173;-79
2023/06/11 08:38:08;;;;;;;4.57;3.88;;;24.50;99.90;;;;;;5057041;28;20192;-79
2023/06/11 08:40:40;;;;;;;5.80;4.35;;;24.60;99.90;;;;;;5074357;28;20187;-79
2023/06/11 08:43:06;;;;;;;7.35;5.57;;;24.70;99.90;;;;;;5075064;28;20168;-80
2023/06/11 08:45:32;;;;;;;4.68;4.22;;;24.70;99.90;;;;;;5056254;28;20338;-79
2023/06/11 08:48:01;;;;;;;4.40;3.85;;;24.80;99.90;;;;;;5056431;28;20283;-80
2023/06/11 08:50:29;;;;;;;6.28;4.07;;;24.90;99.90;;;;;;5074807;28;20168;-80
2023/06/11 08:52:56;;;;;;;6.18;4.22;;;24.90;99.90;;;;;;5056792;28;20173;-80
2023/06/11 08:55:21;;;;;;;4.70;4.28;;;25.00;99.90;;;;;;5056355;28;20209;-80
2023/06/11 08:57:50;;;;;;;6.05;4.97;;;25.20;99.90;;;;;;5056816;28;20171;-80
2023/06/11 09:00:16;;;;;;;4.57;4.18;;;25.30;99.90;;;;;;5055995;28;20195;-79
2023/06/11 09:02:41;;;;;;;5.35;4.80;;;25.50;99.90;;;;;;5074070;28;20176;-79
2023/06/11 09:05:08;;;;;;;5.47;4.68;;;25.70;99.90;;;;;;5056306;28;20185;-79
2023/06/11 09:07:33;;;;;;;4.90;4.32;;;25.80;99.90;;;;;;5056128;28;20183;-80
2023/06/11 09:10:10;;;;;;;5.10;4.60;;;25.80;99.90;;;;;;5073934;28;20260;-80
2023/06/11 09:12:36;;;;;;;4.95;4.53;;;25.90;99.90;;;;;;5073989;28;20270;-80
2023/06/11 09:15:04;;;;;;;5.47;4.72;;;26.00;99.90;;;;;;5056355;28;20215;-79
2023/06/11 09:17:34;;;;;;;4.68;4.28;;;25.90;99.90;;;;;;5056079;28;20200;-79
2023/06/11 09:20:07;;;;;;;6.68;5.07;;;26.10;99.90;;;;;;5056007;28;20188;-80
2023/06/11 09:22:35;;;;;;;6.65;4.70;;;26.30;99.90;;;;;;5055759;28;20165;-79
2023/06/11 09:25:16;;;;;;;5.57;4.32;;;26.60;99.90;;;;;;5056103;28;20200;-79
2023/06/11 09:27:43;;;;;;;4.72;4.32;;;26.70;99.90;;;;;;5056073;28;20165;-79
2023/06/11 09:30:16;;;;;;;5.05;4.50;;;26.90;99.90;;;;;;5055831;28;20204;-79
2023/06/11 09:32:43;;;;;;;6.47;4.32;;;26.90;99.90;;;;;;5073567;28;20214;-79
2023/06/11 09:35:10;;;;;;;5.60;4.45;;;27.10;99.90;;;;;;5073801;28;20189;-80
2023/06/11 09:37:52;;;;;;;4.50;4.10;;;27.10;99.90;;;;;;5073674;28;20177;-82
2023/06/11 09:40:19;;;;;;;4.47;3.97;;;27.10;99.90;;;;;;5056166;28;20176;-78
2023/06/11 09:42:46;;;;;;;4.60;4.20;;;27.10;99.90;;;;;;5055708;28;20184;-79
2023/06/11 09:45:19;;;;;;;4.47;4.07;;;27.10;99.90;;;;;;5056025;28;20214;-82
2023/06/11 09:47:46;;;;;;;5.00;3.78;;;27.30;99.90;;;;;;5073890;28;20180;-83
2023/06/11 09:50:14;;;;;;;4.45;4.05;;;27.30;99.90;;;;;;5073521;28;20169;-85
2023/06/11 09:52:41;;;;;;;4.72;4.13;;;27.30;99.90;;;;;;5055138;28;20184;-83
2023/06/11 09:55:08;;;;;;;5.00;3.83;;;27.40;99.90;;;;;;5072813;28;20236;-85
2023/06/11 09:57:36;;;;;;;4.57;3.80;;;27.30;99.90;;;;;;5073139;28;20168;-85
2023/06/11 10:00:03;;;;;;;3.70;3.40;;;27.40;99.90;;;;;;5072923;28;20259;-85
2023/06/11 10:02:28;;;;;;;4.00;3.60;;;27.50;99.90;;;;;;5073031;28;20169;-84
2023/06/11 10:04:55;;;;;;;3.95;3.30;;;27.40;99.90;;;;;;5054678;28;20192;-85
2023/06/11 10:07:23;;;;;;;3.97;3.50;;;27.50;99.90;;;;;;5055141;28;20181;-83
2023/06/11 10:09:51;;;;;;;4.32;3.67;;;27.70;99.90;;;;;;5054649;28;20197;-86
2023/06/11 10:12:20;;;;;;;6.30;4.18;;;27.70;99.90;;;;;;5054662;28;20173;-84
2023/06/11 10:14:56;;;;;;;5.00;3.63;;;27.70;99.90;;;;;;5055485;28;20199;-83
2023/06/11 10:17:22;;;;;;;4.55;3.70;;;27.60;99.90;;;;;;5074936;28;20235;-84
2023/06/11 10:19:49;;;;;;;4.13;3.70;;;27.90;99.90;;;;;;5077024;28;20702;-84
2023/06/11 10:22:21;;;;;;;4.97;3.80;;;28.10;99.90;;;;;;5079404;28;20207;-78
2023/06/11 10:24:59;;;;;;;3.53;3.20;;;28.00;99.90;;;;;;5073595;28;20204;-83
2023/06/11 10:27:35;;;;;;;4.07;3.40;;;28.00;99.90;;;;;;5061874;28;20178;-81
2023/06/11 10:30:01;;;;;;;4.55;3.70;;;28.10;99.90;;;;;;5060577;28;20196;-79
2023/06/11 10:32:26;;;;;;;6.63;4.00;;;28.10;99.90;;;;;;5055306;28;20173;-82
2023/06/11 10:34:59;;;;;;;4.95;3.90;;;27.90;99.90;;;;;;5055232;28;20216;-82
2023/06/11 10:37:33;;;;;;;4.03;3.60;;;28.20;99.90;;;;;;5055768;28;20184;-83
2023/06/11 10:39:59;;;;;;;4.05;3.67;;;28.40;99.90;;;;;;5055344;28;20204;-82
2023/06/11 10:42:36;;;;;;;4.72;4.15;;;28.60;99.90;;;;;;5055927;28;20265;-82
2023/06/11 10:45:07;;;;;;;4.80;3.75;;;28.60;99.90;;;;;;5073561;28;20188;-83
2023/06/11 10:47:41;;;;;;;4.20;3.70;;;28.60;99.90;;;;;;5055682;28;20223;-83
2023/06/11 10:50:14;;;;;;;4.07;3.70;;;28.80;99.90;;;;;;5055164;28;20225;-83
2023/06/11 10:53:02;;;;;;;4.50;4.00;;;28.80;99.90;;;;;;5073178;28;20669;-82
2023/06/11 10:55:29;;;;;;;4.70;3.88;;;28.70;99.90;;;;;;5057416;28;20204;-83
2023/06/11 10:57:58;;;;;;;5.65;4.00;;;29.00;99.90;;;;;;5059570;28;20169;-83
2023/06/11 11:00:28;;;;;;;6.20;3.70;;;29.00;99.90;;;;;;5075138;28;20172;-83
2023/06/11 11:02:55;;;;;;;4.03;3.70;;;29.20;99.90;;;;;;5077359;28;20173;-82
2023/06/11 11:05:20;;;;;;;4.15;3.78;;;29.00;99.90;;;;;;5077294;28;20204;-83
2023/06/11 11:07:47;;;;;;;5.20;4.00;;;29.10;99.90;;;;;;5059497;28;20631;-82
2023/06/11 11:10:18;;;;;;;4.38;3.53;;;29.50;99.90;;;;;;5077136;28;20588;-83
2023/06/11 11:12:48;;;;;;;5.07;3.80;;;29.60;99.90;;;;;;5077154;28;20153;-82
2023/06/11 11:15:14;;;;;;;3.88;3.53;;;29.60;99.90;;;;;;5059067;28;20196;-82
2023/06/11 11:17:41;;;;;;;3.92;3.60;;;29.40;99.90;;;;;;5075983;28;20230;-83
2023/06/11 11:20:08;;;;;;;3.65;3.35;;;29.30;99.90;;;;;;5056702;28;20173;-84
2023/06/11 11:22:34;;;;;;;4.40;4.00;;;29.10;99.90;;;;;;5039341;28;20223;-83
2023/06/11 11:25:04;;;;;;;4.00;3.45;;;29.60;99.90;;;;;;5039755;28;20186;-83
2023/06/11 11:27:30;;;;;;;4.47;3.55;;;30.00;99.90;;;;;;5057037;28;20226;-82
2023/06/11 11:29:59;;;;;;;4.25;3.63;;;30.10;99.90;;;;;;5039241;28;20197;-82
2023/06/11 11:32:32;;;;;;;5.35;3.80;;;30.00;98.10;;;;;;5038999;28;20181;-82
2023/06/11 11:35:00;;;;;;;4.43;3.40;;;30.30;97.40;;;;;;5038823;28;20190;-83
2023/06/11 11:37:28;;;;;;;4.57;3.55;;;30.50;95.40;;;;;;5056465;28;20549;-82
2023/06/11 11:39:54;;;;;;;3.67;3.38;;;30.60;92.50;;;;;;5056427;28;20174;-82
2023/06/11 11:42:22;;;;;;;4.75;3.47;;;30.30;90.00;;;;;;5038698;28;20182;-83
2023/06/11 11:44:51;;;;;;;4.28;3.70;;;30.30;88.10;;;;;;5038459;28;20193;-82
2023/06/11 11:47:20;;;;;;;3.97;3.60;;;30.20;83.50;;;;;;5038900;28;20180;-82
2023/06/11 11:49:56;;;;;;;3.50;3.20;;;30.30;80.70;;;;;;5056062;28;20257;-82
2023/06/11 11:52:23;;;;;;;4.25;3.40;;;30.50;74.40;;;;;;5038192;28;20231;-82
2023/06/11 11:54:49;;;;;;;3.97;3.58;;;30.50;73.00;;;;;;5039713;28;20296;-83
2023/06/11 11:57:21;;;;;;;5.53;3.33;;;30.50;67.60;;;;;;5039488;28;20180;-82
2023/06/11 11:59:51;;;;;;;4.05;3.05;;;30.20;61.60;;;;;;5039820;28;20177;-82
2023/06/11 12:02:17;;;;;;;3.83;3.13;;;30.20;58.00;;;;;;5040688;28;20227;-83
2023/06/11 12:04:46;;;;;;;3.67;3.10;;;30.30;51.80;;;;;;5039093;28;20198;-82
2023/06/11 12:07:15;;;;;;;4.15;3.10;;;30.40;52.00;;;;;;5039839;28;20546;-82
2023/06/11 12:09:41;;;;;;;3.38;2.92;;;30.30;44.50;;;;;;5038335;28;20225;-83
2023/06/11 12:12:08;;;;;;;3.47;3.17;;;30.40;44.40;;;;;;5037001;28;20170;-85
2023/06/11 12:14:34;;;;;;;3.38;2.90;;;30.50;43.90;;;;;;5055334;28;20223;-83
2023/06/11 12:17:00;;;;;;;4.53;3.03;;;30.60;42.00;;;;;;5037494;28;20268;-84
2023/06/11 12:19:29;;;;;;;4.25;3.08;;;30.80;40.70;;;;;;5037166;28;20260;-83
2023/06/11 12:21:55;;;;;;;3.90;3.28;;;31.10;48.20;;;;;;5055032;28;20170;-83
2023/06/11 12:24:22;;;;;;;3.53;3.15;;;31.10;37.20;;;;;;5055246;28;20194;-83
2023/06/11 12:26:49;;;;;;;3.70;3.40;;;30.90;37.00;;;;;;5037360;28;20177;-83
2023/06/11 12:29:15;;;;;;;3.35;3.03;;;31.20;36.20;;;;;;5054988;28;20285;-83
2023/06/11 12:31:41;;;;;;;3.45;3.10;;;30.90;31.70;;;;;;5036775;28;20169;-83
2023/06/11 12:34:09;;;;;;;3.72;3.35;;;30.80;31.00;;;;;;5054888;28;20190;-83
2023/06/11 12:36:35;;;;;;;3.40;3.10;;;30.60;27.60;;;;;;5054812;28;20196;-83
2023/06/11 12:39:05;;;;;;;4.25;3.17;;;30.60;28.50;;;;;;5037303;28;20182;-83
2023/06/11 12:41:31;;;;;;;3.53;2.92;;;31.10;27.90;;;;;;5036936;28;20192;-83
2023/06/11 12:44:00;;;;;;;3.40;3.10;;;30.90;25.20;;;;;;5037045;28;20227;-83
2023/06/11 12:46:28;;;;;;;3.50;3.20;;;30.90;28.20;;;;;;5036734;28;20173;-83
2023/06/11 12:48:54;;;;;;;3.72;3.30;;;30.60;26.40;;;;;;5054756;28;20241;-83